Time;durP1;ratioP1;P1;durP2;ratioP2;P2;SDS_P1;SDS_P2;PMS_P1;PMS_P2;Temp;Humidity;BMP_temperature;BMP_pressure;BME280_temperature;BME280_humidity;BME280_pressure;Samples;Min_cycle;Max_cycle;Signal;HPM_P1;HPM_P2
2024/04/18 00:01:20;;;;;;;1.05;0.60;;;;;;;;;;5447563;26;20320;-63
2024/04/18 00:03:46;;;;;;;1.00;0.50;;;;;;;;;;5444184;26;20058;-63
2024/04/18 00:06:14;;;;;;;0.77;0.50;;;;;;;;;;5447700;26;20003;-63
2024/04/18 00:08:39;;;;;;;1.08;0.70;;;;;;;;;;5446499;26;19998;-64
2024/04/18 00:11:05;;;;;;;1.13;0.80;;;;;;;;;;5437340;26;20018;-63
2024/04/18 00:13:30;;;;;;;1.30;0.80;;;;;;;;;;5431294;26;19995;-62
2024/04/18 00:15:55;;;;;;;1.25;0.63;;;;;;;;;;5447704;26;20013;-64
2024/04/18 00:18:20;;;;;;;1.38;0.80;;;;;;;;;;5447754;26;19994;-63
2024/04/18 00:20:46;;;;;;;0.90;0.50;;;;;;;;;;5445876;26;20059;-64
2024/04/18 00:23:11;;;;;;;1.02;0.60;;;;;;;;;;5446210;26;20021;-64
2024/04/18 00:25:36;;;;;;;1.10;0.60;;;;;;;;;;5447794;26;20013;-62
2024/04/18 00:28:02;;;;;;;0.90;0.60;;;;;;;;;;5445476;26;20002;-64
2024/04/18 00:30:27;;;;;;;1.00;0.60;;;;;;;;;;5431969;26;20005;-65
2024/04/18 00:32:53;;;;;;;0.80;0.70;;;;;;;;;;5441497;26;19999;-63
2024/04/18 00:35:18;;;;;;;1.08;0.70;;;;;;;;;;5446442;26;19999;-64
2024/04/18 00:37:43;;;;;;;1.35;0.80;;;;;;;;;;5446365;26;20567;-65
2024/04/18 00:40:09;;;;;;;0.90;0.52;;;;;;;;;;5446034;26;20047;-65
2024/04/18 00:42:34;;;;;;;0.80;0.50;;;;;;;;;;5447102;26;20116;-62
2024/04/18 00:44:59;;;;;;;1.15;0.70;;;;;;;;;;5445518;26;19998;-63
2024/04/18 00:47:24;;;;;;;1.48;0.70;;;;;;;;;;5437426;26;20039;-62
2024/04/18 00:49:50;;;;;;;1.00;0.60;;;;;;;;;;5414659;26;20026;-62
2024/04/18 00:52:19;;;;;;;0.77;0.50;;;;;;;;;;5445541;26;20010;-64
2024/04/18 00:54:44;;;;;;;1.13;0.63;;;;;;;;;;5438853;26;20517;-63
2024/04/18 00:57:09;;;;;;;1.63;0.70;;;;;;;;;;5434709;26;19999;-63
2024/04/18 00:59:35;;;;;;;0.95;0.80;;;;;;;;;;5444566;26;20476;-62
2024/04/18 01:02:01;;;;;;;1.02;0.70;;;;;;;;;;5437492;26;20014;-63
2024/04/18 01:04:26;;;;;;;0.95;0.70;;;;;;;;;;5405963;26;20036;-64
2024/04/18 01:06:52;;;;;;;1.25;0.90;;;;;;;;;;5444298;26;20014;-63
2024/04/18 01:09:17;;;;;;;1.30;0.75;;;;;;;;;;5444522;26;20003;-64
2024/04/18 01:11:43;;;;;;;1.08;0.70;;;;;;;;;;5441641;26;20021;-63
2024/04/18 01:14:09;;;;;;;1.30;1.00;;;;;;;;;;5430423;26;22154;-63
2024/04/18 01:16:34;;;;;;;1.13;0.80;;;;;;;;;;5442587;26;20046;-62
2024/04/18 01:18:59;;;;;;;1.17;0.85;;;;;;;;;;5444980;26;20345;-63
2024/04/18 01:21:25;;;;;;;1.10;0.88;;;;;;;;;;5413537;26;19999;-64
2024/04/18 01:23:53;;;;;;;1.35;0.80;;;;;;;;;;5446044;26;20014;-64
2024/04/18 01:26:18;;;;;;;1.25;0.90;;;;;;;;;;5444662;26;20018;-63
2024/04/18 01:28:43;;;;;;;1.15;0.70;;;;;;;;;;5444249;26;20003;-64
2024/04/18 01:31:09;;;;;;;1.02;0.60;;;;;;;;;;5435149;26;20003;-63
2024/04/18 01:33:34;;;;;;;1.15;0.77;;;;;;;;;;5444356;26;20018;-64
2024/04/18 01:35:59;;;;;;;1.30;0.80;;;;;;;;;;5445664;26;20013;-63
2024/04/18 01:38:24;;;;;;;1.50;0.77;;;;;;;;;;5440164;26;20451;-64
2024/04/18 01:40:50;;;;;;;1.08;0.80;;;;;;;;;;5417402;26;20332;-63
2024/04/18 01:43:15;;;;;;;1.25;0.88;;;;;;;;;;5414760;26;20011;-63
2024/04/18 01:45:40;;;;;;;1.40;0.98;;;;;;;;;;5414036;26;19998;-64
2024/04/18 01:48:06;;;;;;;1.52;1.00;;;;;;;;;;5426140;26;20002;-64
2024/04/18 01:50:31;;;;;;;1.00;0.57;;;;;;;;;;5439749;26;20003;-62
2024/04/18 01:52:56;;;;;;;1.33;0.90;;;;;;;;;;5435427;26;20325;-64
2024/04/18 01:55:21;;;;;;;0.90;0.80;;;;;;;;;;5442490;26;20014;-63
2024/04/18 01:57:47;;;;;;;1.30;0.95;;;;;;;;;;5433684;26;20006;-64
2024/04/18 02:00:12;;;;;;;2.42;0.90;;;;;;;;;;5412257;26;20002;-64
2024/04/18 02:02:38;;;;;;;1.30;1.00;;;;;;;;;;5444266;26;20003;-64
2024/04/18 02:05:03;;;;;;;1.20;0.82;;;;;;;;;;5444020;26;20006;-64
2024/04/18 02:07:28;;;;;;;1.15;0.73;;;;;;;;;;5444764;26;20006;-64
2024/04/18 02:09:54;;;;;;;1.30;0.70;;;;;;;;;;5443901;26;20023;-62
2024/04/18 02:12:19;;;;;;;1.15;0.85;;;;;;;;;;5449178;26;20014;-65
2024/04/18 02:14:44;;;;;;;1.08;0.77;;;;;;;;;;5435075;26;20018;-63
2024/04/18 02:17:10;;;;;;;1.10;0.80;;;;;;;;;;5439944;26;20013;-64
2024/04/18 02:19:35;;;;;;;0.90;0.75;;;;;;;;;;5448982;26;20003;-63
2024/04/18 02:22:00;;;;;;;1.10;0.80;;;;;;;;;;5447716;26;20765;-64
2024/04/18 02:24:26;;;;;;;0.82;0.73;;;;;;;;;;5448266;26;20063;-62
2024/04/18 02:26:51;;;;;;;1.45;0.90;;;;;;;;;;5448832;26;20553;-62
2024/04/18 02:29:26;;;;;;;1.52;1.00;;;;;;;;;;5447651;26;20455;-63
2024/04/18 02:31:51;;;;;;;0.95;0.68;;;;;;;;;;5447533;26;20056;-64
2024/04/18 02:34:16;;;;;;;1.27;1.05;;;;;;;;;;5432390;26;20002;-64
2024/04/18 02:36:42;;;;;;;1.10;0.70;;;;;;;;;;5452191;26;20056;-63
2024/04/18 02:39:07;;;;;;;0.90;0.80;;;;;;;;;;5411266;26;20014;-63
2024/04/18 02:41:32;;;;;;;1.20;0.70;;;;;;;;;;5447937;26;20332;-63
2024/04/18 02:43:58;;;;;;;1.25;0.80;;;;;;;;;;5443642;26;20050;-63
2024/04/18 02:46:23;;;;;;;1.20;0.82;;;;;;;;;;5412390;26;20021;-63
2024/04/18 02:48:48;;;;;;;1.10;0.70;;;;;;;;;;5416849;26;20045;-61
2024/04/18 02:51:13;;;;;;;1.40;0.80;;;;;;;;;;5413901;26;20000;-61
2024/04/18 02:53:39;;;;;;;5.72;1.00;;;;;;;;;;5417173;26;20123;-63
2024/04/18 02:56:04;;;;;;;1.08;0.70;;;;;;;;;;5436714;26;20007;-62
2024/04/18 02:58:30;;;;;;;1.10;0.75;;;;;;;;;;5438269;26;20010;-63
2024/04/18 03:00:55;;;;;;;1.05;0.77;;;;;;;;;;5420173;26;20004;-63
2024/04/18 03:03:20;;;;;;;0.93;0.70;;;;;;;;;;5412788;26;19995;-64
2024/04/18 03:05:46;;;;;;;1.50;0.93;;;;;;;;;;5414771;26;20013;-63
2024/04/18 03:08:11;;;;;;;0.85;0.65;;;;;;;;;;5415397;26;20221;-61
2024/04/18 03:10:37;;;;;;;1.60;0.57;;;;;;;;;;5413828;26;20031;-62
2024/04/18 03:13:02;;;;;;;1.15;0.70;;;;;;;;;;5415975;26;19991;-64
2024/04/18 03:15:27;;;;;;;1.20;0.70;;;;;;;;;;5412325;26;19999;-61
2024/04/18 03:17:53;;;;;;;1.10;0.75;;;;;;;;;;5415066;26;20007;-63
2024/04/18 03:20:19;;;;;;;1.15;0.73;;;;;;;;;;5415348;26;20006;-62
2024/04/18 03:22:53;;;;;;;1.15;0.75;;;;;;;;;;5415658;26;20350;-61
2024/04/18 03:25:19;;;;;;;1.05;0.60;;;;;;;;;;5412770;26;20014;-62
2024/04/18 03:27:44;;;;;;;0.80;0.60;;;;;;;;;;5417533;26;19999;-62
2024/04/18 03:30:09;;;;;;;0.90;0.65;;;;;;;;;;5414654;26;19996;-63
2024/04/18 03:32:35;;;;;;;0.70;0.50;;;;;;;;;;5413256;26;20413;-63
2024/04/18 03:35:00;;;;;;;1.35;0.73;;;;;;;;;;5415446;26;20005;-62
2024/04/18 03:37:27;;;;;;;1.15;0.70;;;;;;;;;;5415327;26;22429;-61
2024/04/18 03:39:59;;;;;;;1.20;0.80;;;;;;;;;;5415233;26;20011;-62
2024/04/18 03:42:24;;;;;;;0.90;0.60;;;;;;;;;;5412741;26;20010;-62
2024/04/18 03:44:49;;;;;;;0.68;0.50;;;;;;;;;;5414221;26;20003;-63
2024/04/18 03:47:15;;;;;;;0.90;0.70;;;;;;;;;;5414387;26;20969;-61
2024/04/18 03:49:40;;;;;;;1.20;0.70;;;;;;;;;;5416505;26;20093;-62
2024/04/18 03:52:05;;;;;;;1.60;0.65;;;;;;;;;;5415053;26;20020;-62
2024/04/18 03:54:33;;;;;;;1.02;0.68;;;;;;;;;;5414366;26;19999;-61
2024/04/18 03:56:58;;;;;;;1.08;0.75;;;;;;;;;;5416500;26;19999;-63
2024/04/18 03:59:23;;;;;;;0.80;0.65;;;;;;;;;;5416391;26;20007;-63
2024/04/18 04:01:48;;;;;;;4.13;1.30;;;;;;;;;;5412474;26;20426;-64
2024/04/18 04:04:14;;;;;;;3.72;1.55;;;;;;;;;;5412702;26;21054;-63
2024/04/18 04:06:39;;;;;;;1.15;0.77;;;;;;;;;;5413368;26;19995;-64
2024/04/18 04:09:05;;;;;;;3.55;0.85;;;;;;;;;;5409281;26;19999;-63
2024/04/18 04:11:30;;;;;;;2.00;0.63;;;;;;;;;;5414020;26;20007;-62
2024/04/18 04:13:55;;;;;;;3.20;0.90;;;;;;;;;;5414429;26;20021;-63
2024/04/18 04:16:21;;;;;;;5.85;0.68;;;;;;;;;;5413059;26;19992;-64
2024/04/18 04:18:50;;;;;;;0.90;0.50;;;;;;;;;;5415287;26;20425;-63
2024/04/18 04:21:19;;;;;;;5.83;0.93;;;;;;;;;;5417180;26;20277;-61
2024/04/18 04:23:45;;;;;;;1.70;0.70;;;;;;;;;;5415608;26;20007;-60
2024/04/18 04:26:10;;;;;;;1.00;0.57;;;;;;;;;;5413268;26;20473;-63
2024/04/18 04:28:35;;;;;;;1.35;0.63;;;;;;;;;;5414678;26;19996;-62
2024/04/18 04:31:01;;;;;;;2.40;0.70;;;;;;;;;;5414571;26;19996;-61
2024/04/18 04:33:26;;;;;;;1.58;0.60;;;;;;;;;;5409631;26;20127;-63
2024/04/18 04:35:52;;;;;;;1.00;0.68;;;;;;;;;;5411851;26;19996;-63
2024/04/18 04:38:17;;;;;;;1.15;0.63;;;;;;;;;;5411824;26;20060;-61
2024/04/18 04:40:42;;;;;;;2.20;0.60;;;;;;;;;;5414997;26;19999;-62
2024/04/18 04:43:07;;;;;;;1.17;0.60;;;;;;;;;;5414253;26;20011;-60
2024/04/18 04:45:33;;;;;;;1.52;0.68;;;;;;;;;;5413980;26;19994;-61
2024/04/18 04:47:58;;;;;;;1.95;0.60;;;;;;;;;;5411250;26;20046;-62
2024/04/18 04:50:24;;;;;;;0.90;0.60;;;;;;;;;;5411227;26;20133;-62
2024/04/18 04:52:49;;;;;;;1.85;0.70;;;;;;;;;;5411913;26;22016;-62
2024/04/18 04:55:16;;;;;;;0.80;0.60;;;;;;;;;;5411647;26;20318;-63
2024/04/18 04:57:41;;;;;;;0.90;0.70;;;;;;;;;;5413130;26;20038;-62
2024/04/18 05:00:07;;;;;;;0.90;0.70;;;;;;;;;;5412161;26;20005;-62
2024/04/18 05:02:40;;;;;;;1.20;0.70;;;;;;;;;;5413175;26;20072;-62
2024/04/18 05:05:06;;;;;;;1.20;0.73;;;;;;;;;;5411644;26;20693;-64
2024/04/18 05:07:31;;;;;;;2.35;0.75;;;;;;;;;;5419902;26;19996;-63
2024/04/18 05:09:56;;;;;;;1.05;0.70;;;;;;;;;;5412188;26;20023;-62
2024/04/18 05:12:22;;;;;;;1.48;0.70;;;;;;;;;;5408010;26;20061;-62
2024/04/18 05:14:47;;;;;;;1.05;0.70;;;;;;;;;;5413178;26;19996;-64
2024/04/18 05:17:12;;;;;;;0.93;0.60;;;;;;;;;;5411404;26;20006;-63
2024/04/18 05:19:37;;;;;;;1.20;0.70;;;;;;;;;;5415356;26;19995;-63
2024/04/18 05:22:03;;;;;;;2.08;0.80;;;;;;;;;;5414561;26;20002;-65
2024/04/18 05:24:28;;;;;;;2.05;0.70;;;;;;;;;;5401848;26;20014;-63
2024/04/18 05:26:54;;;;;;;0.80;0.52;;;;;;;;;;5413588;26;20133;-65
2024/04/18 05:32:04;;;;;;;0.65;0.45;;;;;;;;;;5414750;26;20025;-67
2024/04/18 05:34:30;;;;;;;1.67;0.80;;;;;;;;;;5410096;26;20080;-64
2024/04/18 05:36:58;;;;;;;1.00;0.68;;;;;;;;;;5412614;26;19999;-64
2024/04/18 05:39:24;;;;;;;2.05;0.70;;;;;;;;;;5410214;26;20027;-63
2024/04/18 05:41:49;;;;;;;1.20;0.80;;;;;;;;;;5412123;26;20141;-61
2024/04/18 05:44:14;;;;;;;2.75;0.88;;;;;;;;;;5411970;26;20032;-61
2024/04/18 05:46:39;;;;;;;5.03;1.02;;;;;;;;;;5420329;26;20082;-63
2024/04/18 05:49:05;;;;;;;1.70;1.30;;;;;;;;;;5416148;26;20008;-65
2024/04/18 05:51:30;;;;;;;1.85;0.70;;;;;;;;;;5411954;26;20010;-62
2024/04/18 05:53:55;;;;;;;3.67;1.13;;;;;;;;;;5413209;26;20067;-60
2024/04/18 05:56:21;;;;;;;2.17;0.88;;;;;;;;;;5415316;26;20019;-62
2024/04/18 05:58:46;;;;;;;2.10;1.10;;;;;;;;;;5413149;26;20006;-64
2024/04/18 06:01:11;;;;;;;2.47;0.93;;;;;;;;;;5414493;26;20035;-64
2024/04/18 06:03:38;;;;;;;2.25;0.80;;;;;;;;;;5411578;26;19996;-64
2024/04/18 06:06:04;;;;;;;1.77;0.80;;;;;;;;;;5396791;26;20010;-64
2024/04/18 06:08:29;;;;;;;2.00;1.20;;;;;;;;;;5414589;26;20014;-63
2024/04/18 06:10:55;;;;;;;3.63;0.93;;;;;;;;;;5413259;26;20064;-62
2024/04/18 06:13:24;;;;;;;2.65;1.00;;;;;;;;;;5415763;26;20002;-63
2024/04/18 06:15:51;;;;;;;1.53;1.00;;;;;;;;;;5414580;26;20375;-62
2024/04/18 06:18:16;;;;;;;1.88;0.88;;;;;;;;;;5416108;26;20044;-63
2024/04/18 06:20:44;;;;;;;1.77;0.95;;;;;;;;;;5415357;26;19996;-62
2024/04/18 06:23:09;;;;;;;1.77;1.05;;;;;;;;;;5413504;26;19999;-62
2024/04/18 06:25:35;;;;;;;2.63;0.88;;;;;;;;;;5415605;26;20019;-62
2024/04/18 06:28:01;;;;;;;1.50;0.90;;;;;;;;;;5410332;26;19999;-64
2024/04/18 06:30:26;;;;;;;2.28;0.85;;;;;;;;;;5414149;26;20009;-65
2024/04/18 06:32:52;;;;;;;1.95;1.00;;;;;;;;;;5412876;26;20011;-61
2024/04/18 06:35:17;;;;;;;2.38;1.10;;;;;;;;;;5412439;26;20042;-63
2024/04/18 06:37:42;;;;;;;1.35;0.85;;;;;;;;;;5416953;26;19992;-62
2024/04/18 06:40:08;;;;;;;1.83;0.88;;;;;;;;;;5414267;26;20011;-63
2024/04/18 06:42:33;;;;;;;1.65;1.10;;;;;;;;;;5415148;26;19991;-60
2024/04/18 06:44:58;;;;;;;2.83;1.10;;;;;;;;;;5415492;26;20010;-60
2024/04/18 06:47:23;;;;;;;1.65;0.82;;;;;;;;;;5412824;26;20694;-61
2024/04/18 06:49:49;;;;;;;1.13;0.70;;;;;;;;;;5406400;26;20010;-61
2024/04/18 06:52:14;;;;;;;1.95;1.02;;;;;;;;;;5438512;26;20047;-61
2024/04/18 06:54:39;;;;;;;2.42;1.00;;;;;;;;;;5418605;26;20015;-61
2024/04/18 06:57:05;;;;;;;1.35;1.00;;;;;;;;;;5413579;26;20362;-61
2024/04/18 06:59:30;;;;;;;3.42;1.10;;;;;;;;;;5416625;26;20629;-61
2024/04/18 07:01:56;;;;;;;2.30;1.10;;;;;;;;;;5415410;26;20002;-61
2024/04/18 07:04:21;;;;;;;1.67;1.05;;;;;;;;;;5420424;26;20003;-59
2024/04/18 07:06:46;;;;;;;2.05;0.90;;;;;;;;;;5416145;26;20068;-60
2024/04/18 07:09:12;;;;;;;2.10;1.15;;;;;;;;;;5418121;26;19999;-59
2024/04/18 07:11:38;;;;;;;2.03;0.90;;;;;;;;;;5416411;26;19995;-60
2024/04/18 07:14:03;;;;;;;1.55;0.95;;;;;;;;;;5422010;26;20015;-61
2024/04/18 07:16:29;;;;;;;2.47;1.20;;;;;;;;;;5434045;26;20005;-61
2024/04/18 07:18:54;;;;;;;1.70;1.02;;;;;;;;;;5421448;26;20021;-62
2024/04/18 07:21:19;;;;;;;1.45;0.70;;;;;;;;;;5417012;26;20416;-61
2024/04/18 07:23:45;;;;;;;1.85;1.02;;;;;;;;;;5423440;26;19995;-60
2024/04/18 07:26:10;;;;;;;2.00;0.95;;;;;;;;;;5412790;26;19998;-61
2024/04/18 07:28:35;;;;;;;1.83;0.93;;;;;;;;;;5412295;26;20084;-60
2024/04/18 07:31:01;;;;;;;2.05;0.80;;;;;;;;;;5387318;26;20072;-61
2024/04/18 07:33:26;;;;;;;1.70;0.93;;;;;;;;;;5438899;26;19999;-62
2024/04/18 07:36:00;;;;;;;1.10;0.88;;;;;;;;;;5414799;26;20665;-63
2024/04/18 07:38:26;;;;;;;1.52;0.85;;;;;;;;;;5417910;26;19999;-61
2024/04/18 07:40:57;;;;;;;2.15;1.13;;;;;;;;;;5415610;26;20469;-63
2024/04/18 07:43:23;;;;;;;2.13;1.17;;;;;;;;;;5443868;26;20025;-60
2024/04/18 07:45:49;;;;;;;1.25;1.00;;;;;;;;;;5447188;26;19995;-61
2024/04/18 07:48:14;;;;;;;1.67;0.70;;;;;;;;;;5449209;26;20013;-62
2024/04/18 07:50:39;;;;;;;1.70;1.00;;;;;;;;;;5446859;26;19999;-60
2024/04/18 07:53:05;;;;;;;2.08;1.00;;;;;;;;;;5446335;26;20003;-61
2024/04/18 07:55:31;;;;;;;1.70;1.00;;;;;;;;;;5446220;26;20428;-60
2024/04/18 07:57:56;;;;;;;2.67;0.90;;;;;;;;;;5446065;26;20853;-62
2024/04/18 08:00:21;;;;;;;3.13;1.20;;;;;;;;;;5448370;26;20108;-61
2024/04/18 08:02:47;;;;;;;1.50;0.88;;;;;;;;;;5446815;26;20048;-61
2024/04/18 08:05:12;;;;;;;1.50;0.85;;;;;;;;;;5447271;26;20034;-62
2024/04/18 08:07:38;;;;;;;2.30;1.00;;;;;;;;;;5436742;26;19995;-60
2024/04/18 08:10:03;;;;;;;2.05;1.10;;;;;;;;;;5444591;26;20003;-60
2024/04/18 08:12:29;;;;;;;1.48;0.80;;;;;;;;;;5447770;26;20014;-61
2024/04/18 08:14:54;;;;;;;1.98;0.88;;;;;;;;;;5414343;26;20406;-60
2024/04/18 08:17:19;;;;;;;1.67;0.90;;;;;;;;;;5446874;26;20017;-61
2024/04/18 08:19:45;;;;;;;1.55;0.82;;;;;;;;;;5446298;26;20002;-63
2024/04/18 08:22:10;;;;;;;1.88;1.20;;;;;;;;;;5446803;26;20011;-60
2024/04/18 08:24:35;;;;;;;1.60;0.80;;;;;;;;;;5409714;26;20044;-61
2024/04/18 08:27:01;;;;;;;1.55;0.80;;;;;;;;;;5443722;26;20699;-61
2024/04/18 08:29:26;;;;;;;1.70;0.77;;;;;;;;;;5447604;26;19999;-63
2024/04/18 08:31:52;;;;;;;1.77;0.90;;;;;;;;;;5445494;26;19999;-60
2024/04/18 08:34:24;;;;;;;2.25;0.80;;;;;;;;;;5445323;26;20079;-60
2024/04/18 08:36:50;;;;;;;1.52;0.90;;;;;;;;;;5446075;26;20443;-60
2024/04/18 08:39:18;;;;;;;1.40;0.77;;;;;;;;;;5444660;26;20331;-60
2024/04/18 08:41:43;;;;;;;1.17;0.60;;;;;;;;;;5444171;26;19999;-61
2024/04/18 08:44:09;;;;;;;1.27;0.70;;;;;;;;;;5440634;26;20921;-62
2024/04/18 08:46:37;;;;;;;1.42;0.70;;;;;;;;;;5446088;26;20084;-59
2024/04/18 08:49:06;;;;;;;2.40;0.75;;;;;;;;;;5445595;26;20020;-60
2024/04/18 08:51:35;;;;;;;1.75;0.85;;;;;;;;;;5446550;26;19998;-60
2024/04/18 08:54:00;;;;;;;1.83;0.70;;;;;;;;;;5445091;26;19998;-60
2024/04/18 08:56:26;;;;;;;1.60;1.00;;;;;;;;;;5445166;26;20009;-66
2024/04/18 08:58:51;;;;;;;1.83;0.70;;;;;;;;;;5447388;26;20491;-63
2024/04/18 09:01:16;;;;;;;2.30;1.02;;;;;;;;;;5444658;26;20036;-60
2024/04/18 09:03:42;;;;;;;1.30;0.70;;;;;;;;;;5446535;26;20010;-65
2024/04/18 09:06:07;;;;;;;1.40;1.00;;;;;;;;;;5445079;26;20006;-68
2024/04/18 09:08:33;;;;;;;1.95;0.90;;;;;;;;;;5445308;26;20443;-62
2024/04/18 09:10:58;;;;;;;1.35;0.90;;;;;;;;;;5447226;26;20011;-60
2024/04/18 09:13:36;;;;;;;1.02;0.60;;;;;;;;;;5444248;26;20007;-61
2024/04/18 09:16:01;;;;;;;2.08;0.90;;;;;;;;;;5437682;26;19999;-61
2024/04/18 09:18:33;;;;;;;1.52;0.75;;;;;;;;;;5440303;26;20088;-60
2024/04/18 09:20:58;;;;;;;1.35;0.70;;;;;;;;;;5449353;26;19999;-61
2024/04/18 09:23:23;;;;;;;1.92;0.70;;;;;;;;;;5428233;26;20399;-67
2024/04/18 09:25:52;;;;;;;1.63;0.80;;;;;;;;;;5428284;26;20629;-59
2024/04/18 09:28:19;;;;;;;1.27;0.60;;;;;;;;;;5415744;26;20108;-61
2024/04/18 09:30:44;;;;;;;2.42;0.90;;;;;;;;;;5411686;26;20061;-60
2024/04/18 09:55:06;;;;;;;34.55;19.35;;;;;;;;;;5433036;26;20071;-59
2024/04/18 09:57:31;;;;;;;37.38;19.08;;;;;;;;;;5439687;26;19999;-59
2024/04/18 09:59:57;;;;;;;20.60;10.65;;;;;;;;;;5398607;26;20010;-60
2024/04/18 10:02:23;;;;;;;17.73;10.52;;;;;;;;;;5415492;26;20004;-60
2024/04/18 10:04:49;;;;;;;16.10;9.35;;;;;;;;;;5390974;26;20000;-60
2024/04/18 10:07:14;;;;;;;10.35;6.45;;;;;;;;;;5413954;26;20134;-60
2024/04/18 10:09:39;;;;;;;14.80;7.25;;;;;;;;;;5426424;26;19995;-60
2024/04/18 10:12:25;;;;;;;9.82;5.72;;;;;;;;;;5409580;26;20003;-60
2024/04/18 10:14:51;;;;;;;6.28;4.00;;;;;;;;;;5436730;26;20129;-60
2024/04/18 10:17:42;;;;;;;10.25;5.82;;;;;;;;;;5435609;26;20011;-60
2024/04/18 10:20:09;;;;;;;11.65;6.22;;;;;;;;;;5430470;26;20239;-60
2024/04/18 10:22:34;;;;;;;12.25;5.68;;;;;;;;;;5436779;26;20002;-60
2024/04/18 10:24:59;;;;;;;11.32;6.15;;;;;;;;;;5434949;26;20548;-59
2024/04/18 10:27:25;;;;;;;10.43;5.70;;;;;;;;;;5436072;26;19990;-60
2024/04/18 10:29:51;;;;;;;10.35;5.90;;;;;;;;;;5433399;26;20010;-58
2024/04/18 10:32:29;;;;;;;10.90;6.00;;;;;;;;;;5414296;26;20077;-60
2024/04/18 10:34:54;;;;;;;9.07;5.93;;;;;;;;;;5416254;26;20047;-59
2024/04/18 10:37:20;;;;;;;9.60;6.05;;;;;;;;;;5413899;26;20017;-59
2024/04/18 10:39:46;;;;;;;10.65;5.25;;;;;;;;;;5412207;26;20015;-60
2024/04/18 10:42:11;;;;;;;10.40;5.22;;;;;;;;;;5413967;26;20476;-60
2024/04/18 10:44:37;;;;;;;10.00;5.40;;;;;;;;;;5416139;26;20747;-60
2024/04/18 10:47:03;;;;;;;8.65;5.40;;;;;;;;;;5415730;26;20009;-60
2024/04/18 10:49:35;;;;;;;9.50;5.20;;;;;;;;;;5415098;26;19995;-59
2024/04/18 10:52:00;;;;;;;9.77;4.40;;;;;;;;;;5412975;26;20321;-60
2024/04/18 10:54:26;;;;;;;10.85;5.07;;;;;;;;;;5413694;26;20130;-60
2024/04/18 10:56:52;;;;;;;6.95;4.25;;;;;;;;;;5416069;26;19995;-59
2024/04/18 10:59:17;;;;;;;7.80;4.47;;;;;;;;;;5411681;26;20881;-60
2024/04/18 11:01:42;;;;;;;8.10;4.00;;;;;;;;;;5411976;26;20010;-59
2024/04/18 11:04:08;;;;;;;8.15;4.30;;;;;;;;;;5415899;26;20441;-60
2024/04/18 11:06:36;;;;;;;6.20;3.50;;;;;;;;;;5440668;26;20321;-60
2024/04/18 11:09:01;;;;;;;6.93;3.80;;;;;;;;;;5416303;26;20010;-60
2024/04/18 11:11:27;;;;;;;5.75;3.45;;;;;;;;;;5412591;26;20203;-65
2024/04/18 11:13:59;;;;;;;6.97;3.63;;;;;;;;;;5413504;26;19996;-61
2024/04/18 11:16:27;;;;;;;5.88;3.25;;;;;;;;;;5419957;26;19996;-61
2024/04/18 11:18:53;;;;;;;5.45;3.20;;;;;;;;;;5418102;26;20397;-59
2024/04/18 11:21:18;;;;;;;5.97;3.58;;;;;;;;;;5390039;26;20221;-62
2024/04/18 11:23:55;;;;;;;6.55;3.40;;;;;;;;;;5412776;26;20046;-59
2024/04/18 11:26:21;;;;;;;6.57;3.00;;;;;;;;;;5414759;26;20068;-59
2024/04/18 11:28:54;;;;;;;6.72;2.90;;;;;;;;;;5416990;26;19995;-60
2024/04/18 11:31:19;;;;;;;4.68;3.08;;;;;;;;;;5414828;26;20036;-63
2024/04/18 11:33:45;;;;;;;4.75;2.78;;;;;;;;;;5414463;26;20000;-59
2024/04/18 11:36:10;;;;;;;5.25;2.90;;;;;;;;;;5414795;26;20003;-61
2024/04/18 11:38:35;;;;;;;5.50;3.15;;;;;;;;;;5417983;26;20007;-61
2024/04/18 11:41:00;;;;;;;4.40;2.58;;;;;;;;;;5415838;26;20365;-62
2024/04/18 11:43:26;;;;;;;4.03;2.33;;;;;;;;;;5414836;26;20014;-62
2024/04/18 11:45:51;;;;;;;4.40;2.60;;;;;;;;;;5412616;26;20015;-60
2024/04/18 11:48:16;;;;;;;4.00;2.20;;;;;;;;;;5417154;26;20003;-60
2024/04/18 11:50:42;;;;;;;5.22;2.53;;;;;;;;;;5412178;26;20060;-58
2024/04/18 11:53:09;;;;;;;5.68;2.50;;;;;;;;;;5416646;26;20072;-60
2024/04/18 11:55:34;;;;;;;3.92;2.20;;;;;;;;;;5411584;26;19996;-59
2024/04/18 11:58:09;;;;;;;4.43;2.00;;;;;;;;;;5414584;26;20071;-59
2024/04/18 12:00:34;;;;;;;3.22;1.50;;;;;;;;;;5424524;26;20772;-59
2024/04/18 12:02:59;;;;;;;3.50;1.90;;;;;;;;;;5420966;26;19999;-62
2024/04/18 12:05:25;;;;;;;3.10;1.60;;;;;;;;;;5415501;26;20133;-60
2024/04/18 12:07:50;;;;;;;2.88;1.77;;;;;;;;;;5414334;26;20224;-59
2024/04/18 12:10:16;;;;;;;3.95;1.90;;;;;;;;;;5420986;26;20071;-59
2024/04/18 12:12:41;;;;;;;3.28;1.65;;;;;;;;;;5413528;26;20098;-61
2024/04/18 12:15:07;;;;;;;4.15;1.83;;;;;;;;;;5438259;26;20003;-64
2024/04/18 12:17:32;;;;;;;3.45;1.65;;;;;;;;;;5449326;26;20006;-59
2024/04/18 12:19:57;;;;;;;3.08;1.58;;;;;;;;;;5451974;26;19999;-59
2024/04/18 12:22:23;;;;;;;2.75;1.80;;;;;;;;;;5448594;26;20018;-59
2024/04/18 12:24:48;;;;;;;3.10;1.60;;;;;;;;;;5445135;26;20089;-59
2024/04/18 12:27:17;;;;;;;3.38;1.58;;;;;;;;;;5447744;26;20014;-59
2024/04/18 12:29:46;;;;;;;3.47;1.95;;;;;;;;;;5447514;26;20075;-59
2024/04/18 12:32:12;;;;;;;4.35;1.85;;;;;;;;;;5447488;26;20038;-61
2024/04/18 12:34:38;;;;;;;2.90;1.77;;;;;;;;;;5448531;26;20013;-59
2024/04/18 12:37:03;;;;;;;2.67;1.60;;;;;;;;;;5442575;26;20003;-59
2024/04/18 12:39:28;;;;;;;3.58;1.67;;;;;;;;;;5447511;26;20006;-59
2024/04/18 12:41:54;;;;;;;4.32;2.10;;;;;;;;;;5445614;26;19998;-58
2024/04/18 12:44:19;;;;;;;3.30;1.88;;;;;;;;;;5447263;26;20067;-59
2024/04/18 12:46:45;;;;;;;3.42;1.52;;;;;;;;;;5448262;26;19999;-61
2024/04/18 12:49:10;;;;;;;2.88;1.50;;;;;;;;;;5445834;26;20003;-59
2024/04/18 12:51:35;;;;;;;3.30;1.58;;;;;;;;;;5447405;26;20002;-59
2024/04/18 12:54:01;;;;;;;2.47;1.30;;;;;;;;;;5445664;26;20036;-59
2024/04/18 12:56:26;;;;;;;2.25;1.38;;;;;;;;;;5446832;26;20320;-60
2024/04/18 12:58:51;;;;;;;2.35;1.38;;;;;;;;;;5447426;26;20002;-60
2024/04/18 13:01:16;;;;;;;2.58;1.50;;;;;;;;;;5446443;26;20097;-60
2024/04/18 13:03:42;;;;;;;2.97;1.23;;;;;;;;;;5447281;26;19999;-60
2024/04/18 13:06:09;;;;;;;2.78;1.45;;;;;;;;;;5447377;26;19999;-61
2024/04/18 13:08:35;;;;;;;2.25;1.27;;;;;;;;;;5447384;26;20440;-63
2024/04/18 13:11:00;;;;;;;3.22;1.33;;;;;;;;;;5446860;26;20048;-59
2024/04/18 13:13:25;;;;;;;2.17;1.17;;;;;;;;;;5446555;26;20030;-59
2024/04/18 13:15:51;;;;;;;2.88;1.30;;;;;;;;;;5413744;26;19998;-59
2024/04/18 13:18:16;;;;;;;2.72;1.25;;;;;;;;;;5446536;26;20075;-60
2024/04/18 13:20:48;;;;;;;2.35;1.20;;;;;;;;;;5397062;26;20053;-59
2024/04/18 13:23:13;;;;;;;3.00;1.20;;;;;;;;;;5416480;26;19995;-59
2024/04/18 13:25:38;;;;;;;2.40;1.25;;;;;;;;;;5418246;26;20000;-60
2024/04/18 13:28:05;;;;;;;1.83;0.90;;;;;;;;;;5398951;26;20037;-61
2024/04/18 13:30:30;;;;;;;2.53;1.10;;;;;;;;;;5414325;26;20356;-60
2024/04/18 13:32:55;;;;;;;1.67;1.13;;;;;;;;;;5431193;26;19999;-59
2024/04/18 13:35:20;;;;;;;2.13;1.10;;;;;;;;;;5446098;26;19999;-60
2024/04/18 13:37:46;;;;;;;2.70;1.15;;;;;;;;;;5437538;26;20040;-59
2024/04/18 13:40:11;;;;;;;2.45;1.17;;;;;;;;;;5446036;26;20010;-61
2024/04/18 13:42:36;;;;;;;1.55;0.90;;;;;;;;;;5445212;26;19991;-61
2024/04/18 13:45:02;;;;;;;2.25;1.08;;;;;;;;;;5447000;26;19994;-62
2024/04/18 13:47:27;;;;;;;1.63;0.88;;;;;;;;;;5449813;26;20016;-61
2024/04/18 13:49:52;;;;;;;1.70;1.00;;;;;;;;;;5406725;26;20003;-61
2024/04/18 13:52:18;;;;;;;1.67;0.80;;;;;;;;;;5446418;26;20852;-61
2024/04/18 13:54:44;;;;;;;2.33;0.90;;;;;;;;;;5446314;26;19999;-63
2024/04/18 13:57:10;;;;;;;1.67;0.93;;;;;;;;;;5377378;26;20018;-62
2024/04/18 13:59:38;;;;;;;2.03;1.05;;;;;;;;;;5447825;26;20436;-64
2024/04/18 14:02:08;;;;;;;1.83;0.93;;;;;;;;;;5387631;26;19995;-62
2024/04/18 14:04:33;;;;;;;2.10;1.30;;;;;;;;;;5447205;26;19999;-63
2024/04/18 14:06:59;;;;;;;2.38;0.85;;;;;;;;;;5448283;26;20009;-63
2024/04/18 14:09:32;;;;;;;1.23;0.80;;;;;;;;;;5451089;26;20023;-61
2024/04/18 14:11:58;;;;;;;2.22;1.00;;;;;;;;;;5439240;26;20468;-61
2024/04/18 14:14:23;;;;;;;1.88;0.98;;;;;;;;;;5419302;26;20395;-61
2024/04/18 14:19:32;;;;;;;3.55;0.82;;;;;;;;;;5451955;26;20053;-60
2024/04/18 14:21:58;;;;;;;1.92;0.90;;;;;;;;;;5450210;26;20010;-61
2024/04/18 14:24:23;;;;;;;1.48;0.90;;;;;;;;;;5449175;26;20002;-60
2024/04/18 14:26:48;;;;;;;1.10;0.80;;;;;;;;;;5418292;26;20371;-61
2024/04/18 14:29:14;;;;;;;1.27;0.77;;;;;;;;;;5449791;26;19999;-59
2024/04/18 14:31:40;;;;;;;1.50;0.88;;;;;;;;;;5417547;26;20011;-60
2024/04/18 14:34:05;;;;;;;2.38;1.00;;;;;;;;;;5448462;26;20025;-60
2024/04/18 14:36:30;;;;;;;2.17;0.85;;;;;;;;;;5446011;26;19994;-61
2024/04/18 14:38:56;;;;;;;1.40;0.85;;;;;;;;;;5418091;26;20003;-59
2024/04/18 14:41:21;;;;;;;1.10;0.73;;;;;;;;;;5442831;26;20412;-60
2024/04/18 14:43:47;;;;;;;2.22;0.80;;;;;;;;;;5449434;26;20320;-59
2024/04/18 14:46:12;;;;;;;1.60;0.93;;;;;;;;;;5448932;26;20049;-60
2024/04/18 14:48:39;;;;;;;1.85;0.85;;;;;;;;;;5450579;26;19999;-61
2024/04/18 14:51:05;;;;;;;1.65;0.98;;;;;;;;;;5446963;26;19999;-61
2024/04/18 14:53:34;;;;;;;1.63;1.00;;;;;;;;;;5446025;26;20017;-65
2024/04/18 14:55:59;;;;;;;2.25;0.93;;;;;;;;;;5449082;26;20015;-63
2024/04/18 14:58:24;;;;;;;2.88;0.90;;;;;;;;;;5436222;26;20006;-62
2024/04/18 15:00:50;;;;;;;3.20;0.80;;;;;;;;;;5417641;26;20023;-60
2024/04/18 15:03:15;;;;;;;2.13;0.88;;;;;;;;;;5415609;26;20013;-61